Flight Track Log - Related Links

Times and Time Zones

All times are in EDT time to prevent confusion due to time zone crossing. See the AWE2177 flight status page for this flight to view local times or setup timezone preferences in your user account.

Time Position Orientation Groundspeed Altitude Reporting Facility
EDT Latitude Longitude Course Direction KTS MPH feet Rate Location/Type
Fri 11:43:50 AM 40.7500 -73.8167 227° Southwest 176 203 2,500  Level New York TRACON
Fri 11:44:50 AM 40.8000 -73.7833 27° Northeast 227 261 5,100 2,850 Climbing New York TRACON
Fri 11:45:00 AM 40.5669 -74.2344 217° Southwest  Level Estimated
Fri 11:45:50 AM 40.8500 -73.8500 315° West 282 325 8,200  Level New York TRACON
Fri 11:46:00 AM 40.4965 -74.3545 270° West  Level Estimated
Fri 11:46:50 AM 40.9000 -73.9333 308° West 288 331 11,900  Level New York TRACON
Fri 11:47:00 AM 40.4260 -74.4743 252° West  Level Estimated
Fri 11:47:50 AM 40.8667 -74.0333 246° West 307 353 14,800  Level New York TRACON
Fri 11:48:00 AM 40.3554 -74.5939 222° Southwest  Level Estimated
Fri 11:49:00 AM 40.2847 -74.7133 227° Southwest  Level Estimated
Fri 11:53:40 AM 40.5450 -74.7170 246° West 100 115 21,800  Level FlightAware ADS-B
Fri 11:54:10 AM 40.5130 -74.7820 237° Southwest 417 480 22,000 176 Climbing FlightAware ADS-B
Fri 11:54:48 AM 40.4790 -74.8500 237° Southwest 417 480 22,000  Level FlightAware ADS-B
Fri 11:55:24 AM 40.4470 -74.9150 237° Southwest 417 480 22,000  Level FlightAware ADS-B
Fri 11:56:06 AM 40.3860 -75.0200 233° Southwest 424 488 22,000  Level FlightAware ADS-B
Fri 11:56:54 AM 40.3310 -75.0970 227° Southwest 422 486 22,000  Level FlightAware ADS-B
Fri 11:57:30 AM 40.2900 -75.1540 227° Southwest 422 486 22,000  Level FlightAware ADS-B
Fri 11:58:07 AM 40.2490 -75.2130 228° Southwest 422 486 22,000  Level FlightAware ADS-B
Fri 11:58:41 AM 40.2100 -75.2670 227° Southwest 422 486 22,000  Level FlightAware ADS-B
Fri 11:59:18 AM 40.1680 -75.3260 227° Southwest 422 486 22,000  Level FlightAware ADS-B
Fri 11:59:54 AM 40.1270 -75.3830 227° Southwest 422 486 22,000  Level FlightAware ADS-B
Fri 12:00:38 PM 40.0106 -75.5489 227° Southwest 430 495 22,000  Level New York Center
Fri 12:01:38 PM 39.9369 -75.6658 231° Southwest 425 489 22,000  Level New York Center
Fri 12:02:36 PM 39.8633 -75.7822 231° Southwest 425 489 22,000 -763 Level New York Center
Fri 12:03:36 PM 39.7894 -75.8958 230° Southwest 425 489 20,500 -1,983 Descending New York Center
Fri 12:04:37 PM 39.7069 -76.0167 228° Southwest 414 476 18,000 -1,835 Descending New York Center
Fri 12:05:37 PM 39.6397 -76.1222 230° Southwest 406 467 16,800 -1,339 Descending New York Center
Fri 12:06:38 PM 39.5789 -76.2200 231° Southwest 377 434 15,300 -1,462 Descending New York Center
Fri 12:07:36 PM 39.5206 -76.3125 231° Southwest 353 406 13,900 -1,579 Descending New York Center
Fri 12:08:13 PM 39.4833 -76.3667 228° Southwest 339 390 12,800 -1,732 Descending Potomac TRACON
Fri 12:09:13 PM 39.4167 -76.4500 224° Southwest 332 382 11,100 -1,400 Descending Potomac TRACON
Fri 12:10:13 PM 39.3333 -76.5167 212° Southwest 324 373 10,000 -545 Descending Potomac TRACON
Fri 12:11:14 PM 39.2667 -76.5833 218° Southwest 325 374 10,000  Level Potomac TRACON
Fri 12:12:08 PM 39.2000 -76.6333 210° Southwest 324 373 10,000  Level Potomac TRACON
Fri 12:13:08 PM 39.1333 -76.7167 224° Southwest 323 372 10,000  Level Potomac TRACON
Fri 12:14:09 PM 39.0667 -76.7833 218° Southwest 311 358 10,000 -843 Level Potomac TRACON
Fri 12:15:09 PM 39.0000 -76.8667 224° Southwest 294 338 8,300 -1,700 Descending Potomac TRACON
Fri 12:16:09 PM 38.9333 -76.9333 218° Southwest 287 330 6,600 -1,488 Descending Potomac TRACON
Fri 12:17:10 PM 38.8500 -76.9500 189° South 289 333 5,300 -1,323 Descending Potomac TRACON
Fri 12:18:16 PM 38.7667 -76.9500 180° South 277 319 3,800 -1,400 Descending Potomac TRACON
Fri 12:19:10 PM 38.7000 -76.9333 169° South 263 303 2,500 -947 Descending Potomac TRACON
Fri 12:20:10 PM 38.6833 -77.0167 256° West 263 303 2,000 -250 Descending Potomac TRACON
Fri 12:21:10 PM 38.7333 -77.0333 345° North 187 215 2,000 -397 Level Potomac TRACON
Fri 12:22:11 PM 38.7833 -77.0333 360° North 157 181 1,200 -694 Descending Potomac TRACON
Fri 12:23:11 PM 38.8167 -77.0333 360° North 131 151 600 -600 Descending Potomac TRACON

Login

Don't have an account? Register now (free) for customized features, flight alerts, and more!